Time;durP1;ratioP1;P1;durP2;ratioP2;P2;SDS_P1;SDS_P2;PMS_P1;PMS_P2;Temp;Humidity;BMP_temperature;BMP_pressure;BME280_temperature;BME280_humidity;BME280_pressure;Samples;Min_cycle;Max_cycle;Signal;HPM_P1;HPM_P2
2022/01/13 00:00:01;;;;;;;215.77;24.43;;;3.10;99.90;;;;;;5056149;28;20443;-77
2022/01/13 00:02:32;;;;;;;176.60;26.50;;;3.10;99.90;;;;;;5054716;28;20447;-78
2022/01/13 00:04:59;;;;;;;114.73;23.37;;;3.20;99.90;;;;;;5055381;28;20451;-78
2022/01/13 00:07:26;;;;;;;155.80;23.70;;;3.20;99.90;;;;;;5041278;28;20939;-79
2022/01/13 00:09:53;;;;;;;148.10;22.53;;;3.00;99.90;;;;;;5036161;28;20519;-80
2022/01/13 00:12:24;;;;;;;156.48;30.98;;;2.90;99.90;;;;;;5035107;28;20426;-79
2022/01/13 00:18:00;;;;;;;155.03;22.53;;;2.80;99.90;;;;;;5011110;28;20590;-78
2022/01/13 00:20:35;;;;;;;159.83;22.67;;;2.70;99.90;;;;;;5035547;28;20506;-80
2022/01/13 00:25:54;;;;;;;181.17;23.67;;;2.60;99.90;;;;;;5024905;28;20436;-82
2022/01/13 00:28:23;;;;;;;205.73;26.20;;;2.80;99.90;;;;;;5035666;28;20785;-79
2022/01/13 00:30:54;;;;;;;170.43;24.90;;;2.80;99.90;;;;;;5035605;28;20448;-79
2022/01/13 00:33:24;;;;;;;192.30;26.03;;;2.80;99.90;;;;;;5035143;28;20460;-81
2022/01/13 00:35:53;;;;;;;176.20;25.40;;;2.80;99.90;;;;;;5035513;28;20452;-79
2022/01/13 00:38:20;;;;;;;199.90;24.43;;;2.70;99.90;;;;;;5035544;28;20575;-80
2022/01/13 00:40:47;;;;;;;161.03;28.77;;;2.70;99.90;;;;;;5035204;28;20472;-80
2022/01/13 00:43:14;;;;;;;191.57;24.03;;;2.80;99.90;;;;;;5034760;28;20452;-80
2022/01/13 00:45:42;;;;;;;182.87;26.20;;;3.00;99.90;;;;;;5035580;28;20468;-82
2022/01/13 00:48:09;;;;;;;157.70;24.90;;;2.90;99.90;;;;;;5034060;28;20437;-79
2022/01/13 00:50:37;;;;;;;292.10;26.50;;;2.80;99.90;;;;;;5035397;28;20448;-79
2022/01/13 00:53:04;;;;;;;182.17;25.53;;;2.90;99.90;;;;;;5035225;28;20456;-79
2022/01/13 00:55:45;;;;;;;162.13;25.17;;;3.00;99.90;;;;;;5034188;28;20448;-76
2022/01/13 00:58:13;;;;;;;135.80;21.87;;;2.90;99.90;;;;;;5033998;28;20498;-80
2022/01/13 01:00:43;;;;;;;221.87;25.10;;;2.70;99.90;;;;;;5034680;28;20449;-78
2022/01/13 01:03:10;;;;;;;125.73;22.57;;;2.60;99.90;;;;;;5034393;28;20575;-80
2022/01/13 01:05:37;;;;;;;184.77;24.07;;;2.60;99.90;;;;;;5034877;28;20456;-79
2022/01/13 01:08:05;;;;;;;159.57;25.30;;;2.60;99.90;;;;;;5050986;28;20823;-79
2022/01/13 01:10:32;;;;;;;177.40;24.03;;;2.60;99.90;;;;;;5054946;28;20454;-81
2022/01/13 01:13:04;;;;;;;146.53;23.00;;;2.60;99.90;;;;;;5055117;28;20452;-80
2022/01/13 01:15:34;;;;;;;169.63;24.27;;;2.50;99.90;;;;;;5054729;28;20443;-80
2022/01/13 01:18:12;;;;;;;139.03;23.63;;;2.60;99.90;;;;;;5054553;28;20527;-80
2022/01/13 01:20:48;;;;;;;164.70;25.07;;;2.60;99.90;;;;;;5054680;28;20447;-78
2022/01/13 01:23:20;;;;;;;134.63;21.53;;;2.50;99.90;;;;;;5054397;28;20450;-83
2022/01/13 01:25:59;;;;;;;160.00;24.50;;;2.50;99.90;;;;;;5054947;28;20447;-78
2022/01/13 01:28:37;;;;;;;181.90;24.90;;;2.60;99.90;;;;;;5054532;28;20926;-80
2022/01/13 01:31:04;;;;;;;142.83;24.50;;;2.60;99.90;;;;;;5054168;28;20431;-78
2022/01/13 01:33:35;;;;;;;139.77;24.33;;;2.60;99.90;;;;;;5054445;28;20448;-79
2022/01/13 01:36:04;;;;;;;140.80;25.07;;;2.60;99.90;;;;;;5054409;28;20462;-82
2022/01/13 01:38:31;;;;;;;191.30;27.57;;;2.50;99.90;;;;;;5054157;28;20491;-78
2022/01/13 01:40:58;;;;;;;191.67;27.23;;;2.60;99.90;;;;;;5053937;28;20482;-77
2022/01/13 01:43:26;;;;;;;182.87;28.77;;;2.70;99.90;;;;;;5054309;28;20455;-79
2022/01/13 01:45:54;;;;;;;143.87;26.33;;;2.90;99.90;;;;;;5053561;28;20922;-80
2022/01/13 01:48:21;;;;;;;191.50;26.50;;;2.90;99.90;;;;;;5054377;28;20440;-78
2022/01/13 01:50:55;;;;;;;139.10;25.13;;;2.90;99.90;;;;;;5053964;28;20436;-81
2022/01/13 01:53:23;;;;;;;117.90;23.60;;;2.80;99.90;;;;;;5053379;28;20951;-77
2022/01/13 01:55:51;;;;;;;219.73;26.63;;;2.80;99.90;;;;;;5053701;28;20501;-78
2022/01/13 01:58:18;;;;;;;222.37;26.93;;;2.80;99.90;;;;;;5053801;28;20475;-79
2022/01/13 02:00:47;;;;;;;224.90;27.20;;;2.90;99.90;;;;;;5053707;28;20435;-81
2022/01/13 02:03:14;;;;;;;236.87;26.97;;;2.90;99.90;;;;;;5053848;28;20493;-82
2022/01/13 02:05:41;;;;;;;213.73;28.63;;;2.90;99.90;;;;;;5053820;28;20828;-81
2022/01/13 02:08:09;;;;;;;181.50;24.77;;;2.90;99.90;;;;;;5047126;28;20455;-79
2022/01/13 02:10:36;;;;;;;143.63;24.03;;;2.90;99.90;;;;;;5033756;28;20457;-81
2022/01/13 02:13:06;;;;;;;231.07;29.27;;;2.80;99.90;;;;;;5033643;28;20518;-80
2022/01/13 02:15:37;;;;;;;197.90;27.70;;;2.70;99.90;;;;;;5033205;28;20658;-81
2022/01/13 02:18:07;;;;;;;114.33;24.93;;;2.70;99.90;;;;;;5033742;28;21001;-81
2022/01/13 02:20:49;;;;;;;149.57;23.93;;;2.80;99.90;;;;;;5032704;28;20994;-81
2022/01/13 02:23:29;;;;;;;206.53;26.53;;;2.70;99.90;;;;;;5033600;28;20444;-80
2022/01/13 02:25:56;;;;;;;181.83;26.57;;;2.80;99.90;;;;;;5033508;28;20554;-81
2022/01/13 02:28:23;;;;;;;188.80;26.67;;;2.90;99.90;;;;;;5033208;28;20919;-80
2022/01/13 02:30:50;;;;;;;163.60;25.80;;;2.90;99.90;;;;;;5033272;28;20433;-79
2022/01/13 02:33:17;;;;;;;140.63;23.90;;;2.90;99.90;;;;;;5032634;28;20506;-77
2022/01/13 02:35:46;;;;;;;188.17;26.57;;;3.00;99.90;;;;;;5033031;28;20880;-78
2022/01/13 02:38:13;;;;;;;157.23;26.23;;;2.90;99.90;;;;;;5032513;28;20476;-80
2022/01/13 02:40:41;;;;;;;133.30;23.07;;;2.70;99.90;;;;;;5033240;28;20472;-78
2022/01/13 02:43:09;;;;;;;148.20;25.80;;;2.70;99.90;;;;;;5033108;28;20448;-80
2022/01/13 02:45:39;;;;;;;157.00;24.33;;;2.70;99.90;;;;;;5033286;28;20443;-79
2022/01/13 02:48:27;;;;;;;179.23;26.17;;;2.80;99.90;;;;;;5033380;28;20456;-79
2022/01/13 02:50:55;;;;;;;137.33;23.80;;;2.90;99.90;;;;;;5032829;28;20454;-82
2022/01/13 02:53:24;;;;;;;175.70;25.47;;;2.80;99.90;;;;;;5033065;28;20459;-79
2022/01/13 02:55:54;;;;;;;107.03;23.27;;;2.80;99.90;;;;;;5031888;28;20455;-79
2022/01/13 02:58:23;;;;;;;117.87;22.40;;;2.90;99.90;;;;;;5031436;28;20492;-82
2022/01/13 03:00:50;;;;;;;98.43;20.00;;;3.00;99.90;;;;;;5032222;28;20467;-80
2022/01/13 03:03:16;;;;;;;107.75;25.00;;;2.90;99.90;;;;;;5032439;28;20442;-80
2022/01/13 03:05:43;;;;;;;123.53;22.97;;;2.70;99.90;;;;;;5032856;28;20207;-80
2022/01/13 03:08:11;;;;;;;99.60;21.37;;;2.70;99.90;;;;;;5033038;28;20448;-83
2022/01/13 03:10:39;;;;;;;107.10;21.13;;;2.70;99.90;;;;;;5033186;28;20436;-81
2022/01/13 03:13:07;;;;;;;120.03;20.57;;;2.70;99.90;;;;;;5036971;28;20447;-80
2022/01/13 03:15:34;;;;;;;121.93;20.63;;;2.60;99.90;;;;;;5051368;28;20470;-81
2022/01/13 03:18:01;;;;;;;123.20;21.10;;;2.70;99.90;;;;;;5051804;28;20973;-80
2022/01/13 03:20:29;;;;;;;105.53;20.60;;;2.80;99.90;;;;;;5051887;28;20813;-79
2022/01/13 03:22:57;;;;;;;99.60;21.70;;;2.80;99.90;;;;;;5052250;28;20518;-80
2022/01/13 03:25:25;;;;;;;117.80;20.90;;;2.70;99.90;;;;;;5052323;28;20447;-79
2022/01/13 03:27:57;;;;;;;87.00;19.27;;;2.80;99.90;;;;;;5051487;28;20443;-80
2022/01/13 03:30:24;;;;;;;111.97;21.17;;;2.70;99.90;;;;;;5050729;28;20798;-79
2022/01/13 03:32:51;;;;;;;132.37;20.90;;;2.50;99.90;;;;;;5050893;28;20452;-80
2022/01/13 03:35:19;;;;;;;131.87;19.80;;;2.60;99.90;;;;;;5051206;28;20976;-79
2022/01/13 03:37:46;;;;;;;91.47;21.10;;;2.50;99.90;;;;;;5051864;28;20439;-81
2022/01/13 03:40:13;;;;;;;80.50;19.57;;;2.60;99.90;;;;;;5052300;28;20468;-81
2022/01/13 03:42:42;;;;;;;89.13;19.93;;;2.70;99.90;;;;;;5051311;28;21132;-81
2022/01/13 03:45:10;;;;;;;100.27;22.00;;;2.60;99.90;;;;;;5051889;28;20805;-81
2022/01/13 03:47:37;;;;;;;133.07;22.03;;;2.70;99.90;;;;;;5052142;28;20907;-80
2022/01/13 03:50:05;;;;;;;112.37;21.10;;;2.70;99.90;;;;;;5052158;28;20447;-81
2022/01/13 03:53:05;;;;;;;95.67;21.90;;;2.70;99.90;;;;;;5051996;28;20455;-81
2022/01/13 03:56:10;;;;;;;109.25;32.70;;;2.50;99.90;;;;;;5029696;28;20422;-79
2022/01/13 03:59:20;;;;;;;79.83;22.50;;;2.80;99.90;;;;;;5052033;28;20594;-81
2022/01/13 04:02:11;;;;;;;115.70;22.00;;;2.80;99.90;;;;;;5052272;28;20455;-80
2022/01/13 04:04:42;;;;;;;101.23;21.40;;;2.60;99.90;;;;;;5050417;28;20447;-79
2022/01/13 04:07:12;;;;;;;102.37;20.70;;;2.50;99.90;;;;;;5050442;28;20440;-80
2022/01/13 04:10:23;;;;;;;98.93;19.80;;;2.50;99.90;;;;;;5050138;28;20432;-82
2022/01/13 04:12:53;;;;;;;135.13;20.43;;;2.50;99.90;;;;;;5052118;28;20448;-80
2022/01/13 04:15:23;;;;;;;89.23;21.67;;;2.40;99.90;;;;;;5051393;28;20859;-82
2022/01/13 04:17:50;;;;;;;81.20;20.23;;;2.30;99.90;;;;;;5049477;28;20444;-80
2022/01/13 04:20:18;;;;;;;77.57;20.13;;;2.10;99.90;;;;;;5051665;28;20829;-79
2022/01/13 04:22:46;;;;;;;105.57;20.33;;;2.00;99.90;;;;;;5048051;28;20466;-80
2022/01/13 04:25:14;;;;;;;145.73;23.70;;;2.10;99.90;;;;;;5037947;28;20448;-79
2022/01/13 04:27:44;;;;;;;163.07;22.30;;;2.20;99.90;;;;;;5029981;28;20460;-80
2022/01/13 04:30:33;;;;;;;180.23;24.13;;;2.30;99.90;;;;;;5031458;28;20460;-79
2022/01/13 04:33:02;;;;;;;181.13;24.20;;;2.20;99.90;;;;;;5030541;28;20491;-81
2022/01/13 04:35:29;;;;;;;169.17;23.97;;;2.30;99.90;;;;;;5031051;28;20448;-79
2022/01/13 04:37:56;;;;;;;135.27;25.33;;;2.40;99.90;;;;;;5032046;28;20452;-82
2022/01/13 04:40:23;;;;;;;170.87;24.77;;;2.30;99.90;;;;;;5031990;28;20502;-79
2022/01/13 04:42:54;;;;;;;99.13;21.97;;;2.30;99.90;;;;;;5032894;28;20448;-79
2022/01/13 04:45:22;;;;;;;116.80;22.43;;;2.30;99.90;;;;;;5035773;28;20494;-80
2022/01/13 04:47:50;;;;;;;144.10;23.77;;;2.40;99.90;;;;;;5035567;28;20455;-78
2022/01/13 04:50:18;;;;;;;230.53;25.50;;;2.30;99.90;;;;;;5034864;28;20456;-81
2022/01/13 04:52:45;;;;;;;179.40;24.80;;;2.20;99.90;;;;;;5035352;28;20471;-83
2022/01/13 04:55:13;;;;;;;132.63;23.90;;;2.30;99.90;;;;;;5035196;28;20923;-81
2022/01/13 04:57:41;;;;;;;122.67;22.60;;;2.40;99.90;;;;;;5035765;28;20789;-84
2022/01/13 05:00:11;;;;;;;120.30;24.83;;;2.40;99.90;;;;;;5035880;28;20487;-81
2022/01/13 05:02:37;;;;;;;95.47;21.80;;;2.40;99.90;;;;;;5035552;28;20459;-82
2022/01/13 05:05:07;;;;;;;97.67;23.20;;;2.30;99.90;;;;;;5035812;28;20440;-79
2022/01/13 05:07:35;;;;;;;96.27;21.53;;;2.30;99.90;;;;;;5034576;28;20437;-81
2022/01/13 05:10:03;;;;;;;130.97;23.03;;;2.30;99.90;;;;;;5033866;28;20437;-81
2022/01/13 05:12:36;;;;;;;143.33;22.80;;;2.30;99.90;;;;;;5033779;28;20477;-82
2022/01/13 05:15:05;;;;;;;116.50;22.80;;;2.30;99.90;;;;;;5034256;28;20527;-81
2022/01/13 05:18:00;;;;;;;126.80;23.70;;;2.40;99.90;;;;;;5034975;28;20526;-81
2022/01/13 05:20:37;;;;;;;111.47;21.77;;;2.30;99.90;;;;;;5034839;28;20947;-80
2022/01/13 05:23:09;;;;;;;94.60;21.63;;;2.40;99.90;;;;;;5034239;28;20444;-80
2022/01/13 05:25:37;;;;;;;97.33;21.47;;;2.40;99.90;;;;;;5034810;28;20455;-80
2022/01/13 05:28:04;;;;;;;103.93;22.17;;;2.40;99.90;;;;;;5034740;28;20445;-80
2022/01/13 05:30:31;;;;;;;105.93;23.17;;;2.30;99.90;;;;;;5034815;28;20440;-79
2022/01/13 05:32:58;;;;;;;112.47;21.80;;;2.30;99.90;;;;;;5034325;28;20459;-81
2022/01/13 05:35:26;;;;;;;92.73;21.53;;;2.50;99.90;;;;;;5034730;28;20464;-79
2022/01/13 05:37:54;;;;;;;94.40;22.13;;;2.50;99.90;;;;;;5034304;28;20440;-80
2022/01/13 05:40:23;;;;;;;125.00;24.07;;;2.50;99.90;;;;;;5034539;28;20507;-79
2022/01/13 05:42:51;;;;;;;105.80;23.93;;;2.60;99.90;;;;;;5034756;28;20436;-79
2022/01/13 05:45:20;;;;;;;135.97;23.90;;;2.60;99.90;;;;;;5034412;28;20518;-81
2022/01/13 05:47:49;;;;;;;175.93;24.47;;;2.50;99.90;;;;;;5034210;28;20451;-81
2022/01/13 05:50:20;;;;;;;143.03;25.53;;;2.40;99.90;;;;;;5034520;28;20424;-79
2022/01/13 05:52:47;;;;;;;109.30;21.93;;;2.40;99.90;;;;;;5034021;28;20467;-78
2022/01/13 05:55:14;;;;;;;125.23;23.47;;;2.50;99.90;;;;;;5032164;28;20919;-77
2022/01/13 05:57:43;;;;;;;119.13;23.40;;;2.50;99.90;;;;;;5034138;28;20464;-76
2022/01/13 06:00:13;;;;;;;123.03;22.53;;;2.60;99.90;;;;;;5032656;28;20491;-77
2022/01/13 06:02:40;;;;;;;125.67;25.60;;;2.50;99.90;;;;;;5042264;28;20454;-80
2022/01/13 06:05:08;;;;;;;184.07;27.77;;;2.50;99.90;;;;;;5052424;28;20431;-80
2022/01/13 06:07:35;;;;;;;223.77;39.33;;;2.50;99.90;;;;;;5050967;28;20437;-80
2022/01/13 06:10:03;;;;;;;102.43;25.27;;;2.50;99.90;;;;;;5053436;28;20439;-78
2022/01/13 06:12:36;;;;;;;116.57;25.67;;;2.60;99.90;;;;;;5053393;28;20462;-80
2022/01/13 06:15:06;;;;;;;121.67;22.50;;;2.60;99.90;;;;;;5053343;28;20567;-77
2022/01/13 06:17:33;;;;;;;105.40;19.77;;;2.40;99.90;;;;;;5053508;28;20840;-81
2022/01/13 06:20:00;;;;;;;147.53;19.63;;;2.30;99.90;;;;;;5053213;28;20483;-79
2022/01/13 06:22:28;;;;;;;152.30;20.87;;;2.20;99.90;;;;;;5053591;28;20448;-79
2022/01/13 06:24:55;;;;;;;155.33;24.70;;;1.90;99.90;;;;;;5033506;28;20492;-79
2022/01/13 06:27:23;;;;;;;141.17;19.70;;;1.90;99.90;;;;;;5032606;28;20436;-81
2022/01/13 06:29:51;;;;;;;200.20;22.60;;;1.80;99.90;;;;;;5033197;28;20510;-80
2022/01/13 06:32:20;;;;;;;138.60;22.37;;;1.80;99.90;;;;;;5032859;28;20502;-78
2022/01/13 06:34:48;;;;;;;187.48;33.17;;;1.80;99.90;;;;;;5032307;28;20434;-76
2022/01/13 06:37:15;;;;;;;201.17;26.67;;;1.90;99.90;;;;;;5033766;28;20188;-80
2022/01/13 06:39:42;;;;;;;123.10;22.00;;;2.00;99.90;;;;;;5032630;28;20503;-80
2022/01/13 06:42:09;;;;;;;186.23;24.73;;;2.00;99.90;;;;;;5033301;28;20820;-80
2022/01/13 06:44:36;;;;;;;154.20;21.97;;;2.00;99.90;;;;;;5044302;28;20455;-78
2022/01/13 06:47:04;;;;;;;161.67;26.53;;;1.90;99.90;;;;;;5050629;28;20447;-77
2022/01/13 06:49:32;;;;;;;187.30;27.70;;;1.90;99.90;;;;;;5052605;28;20451;-78
2022/01/13 06:51:59;;;;;;;151.47;26.60;;;2.00;99.90;;;;;;5052844;28;20431;-78
2022/01/13 06:54:26;;;;;;;126.17;26.90;;;2.00;99.90;;;;;;5052040;28;20797;-78
2022/01/13 06:56:54;;;;;;;145.67;24.87;;;2.10;99.90;;;;;;5052102;28;20443;-76
2022/01/13 06:59:21;;;;;;;137.73;25.73;;;2.20;99.90;;;;;;5052768;28;20486;-80
2022/01/13 07:01:48;;;;;;;154.47;24.87;;;2.20;99.90;;;;;;5052121;28;20466;-78
2022/01/13 07:04:16;;;;;;;136.53;26.13;;;2.20;99.90;;;;;;5052658;28;20455;-81
2022/01/13 07:06:46;;;;;;;134.37;27.23;;;2.30;99.90;;;;;;5055217;28;20522;-77
2022/01/13 07:09:14;;;;;;;191.67;28.50;;;2.30;99.90;;;;;;5057795;28;20459;-78
2022/01/13 07:11:42;;;;;;;133.97;26.30;;;2.50;99.90;;;;;;5057662;28;20440;-77
2022/01/13 07:14:10;;;;;;;138.10;27.27;;;2.40;99.90;;;;;;5056878;28;20813;-81
2022/01/13 07:16:40;;;;;;;143.83;26.70;;;2.30;99.90;;;;;;5052863;28;20527;-80
2022/01/13 07:19:08;;;;;;;124.43;25.90;;;2.50;99.90;;;;;;5052467;28;20463;-80
2022/01/13 07:21:35;;;;;;;194.87;26.10;;;2.50;99.90;;;;;;5052863;28;20550;-83
2022/01/13 07:24:04;;;;;;;216.30;28.60;;;2.60;99.90;;;;;;5053190;28;20439;-81
2022/01/13 07:26:34;;;;;;;220.23;26.57;;;2.60;99.90;;;;;;5052762;28;20927;-78
2022/01/13 07:29:00;;;;;;;188.33;22.57;;;2.60;99.90;;;;;;5052560;28;20439;-81
2022/01/13 07:31:28;;;;;;;260.92;39.60;;;2.30;99.90;;;;;;5051070;28;20440;-81
2022/01/13 07:33:56;;;;;;;225.27;30.83;;;2.20;99.90;;;;;;5051921;28;20199;-84
2022/01/13 07:36:24;;;;;;;253.90;28.43;;;2.20;99.90;;;;;;5052567;28;20458;-82
2022/01/13 07:38:51;;;;;;;182.90;24.13;;;2.30;99.90;;;;;;5052533;28;20469;-81
2022/01/13 07:41:19;;;;;;;181.83;24.93;;;2.10;99.90;;;;;;5051717;28;20846;-83
2022/01/13 07:43:49;;;;;;;233.47;24.83;;;2.10;99.90;;;;;;5052636;28;20436;-82
2022/01/13 07:46:16;;;;;;;201.27;26.33;;;2.00;99.90;;;;;;5052260;28;20819;-80
2022/01/13 07:48:43;;;;;;;142.00;25.67;;;2.00;99.90;;;;;;5050853;28;20496;-82
2022/01/13 07:51:10;;;;;;;147.17;25.67;;;1.90;99.90;;;;;;5052157;28;20432;-81
2022/01/13 07:53:37;;;;;;;148.03;24.33;;;2.10;99.90;;;;;;5052208;28;20484;-82
2022/01/13 07:56:05;;;;;;;180.57;26.07;;;1.90;99.90;;;;;;5052160;28;20451;-80
2022/01/13 07:58:35;;;;;;;174.40;27.53;;;2.00;99.90;;;;;;5051699;28;20447;-81
2022/01/13 08:01:04;;;;;;;175.97;28.73;;;1.90;99.90;;;;;;5051713;28;20862;-82
2022/01/13 08:03:31;;;;;;;131.77;22.30;;;2.00;99.90;;;;;;5050953;28;20469;-81
2022/01/13 08:05:58;;;;;;;157.87;24.90;;;2.00;99.90;;;;;;5051129;28;20443;-82
2022/01/13 08:08:27;;;;;;;146.57;26.50;;;1.90;99.90;;;;;;5051704;28;20446;-82
2022/01/13 08:10:54;;;;;;;206.70;26.23;;;1.80;99.90;;;;;;5052211;28;20443;-77
2022/01/13 08:13:21;;;;;;;135.60;26.07;;;1.90;99.90;;;;;;5051808;28;20471;-80
2022/01/13 08:15:52;;;;;;;120.17;24.47;;;1.90;99.90;;;;;;5051862;28;20446;-82
2022/01/13 08:21:04;;;;;;;98.87;23.83;;;1.90;99.90;;;;;;5056145;28;20501;-85
2022/01/13 08:23:31;;;;;;;80.10;21.70;;;1.80;99.90;;;;;;5056198;28;20436;-84
2022/01/13 08:25:58;;;;;;;125.73;21.20;;;1.70;99.90;;;;;;5056060;28;20514;-85
2022/01/13 08:28:28;;;;;;;103.37;23.13;;;1.70;99.90;;;;;;5055998;28;20440;-80
2022/01/13 08:30:56;;;;;;;148.70;21.83;;;1.70;99.90;;;;;;5058736;28;20518;-79
2022/01/13 08:33:23;;;;;;;103.23;21.73;;;1.60;99.90;;;;;;5055107;28;20462;-81
2022/01/13 08:35:50;;;;;;;132.40;22.70;;;1.70;99.90;;;;;;5054877;28;20443;-83
2022/01/13 08:38:18;;;;;;;130.93;24.60;;;1.70;99.90;;;;;;5055756;28;20439;-82
2022/01/13 08:40:47;;;;;;;167.13;26.07;;;1.80;99.90;;;;;;5055987;28;20479;-82
2022/01/13 08:43:19;;;;;;;178.60;29.40;;;1.90;99.90;;;;;;5055214;28;20452;-82
2022/01/13 08:45:46;;;;;;;134.70;25.00;;;1.90;99.90;;;;;;5054953;28;20431;-78
2022/01/13 08:48:15;;;;;;;141.57;23.90;;;2.10;99.90;;;;;;5055190;28;20446;-81
2022/01/13 08:50:42;;;;;;;138.70;22.87;;;2.10;99.90;;;;;;5052094;28;20443;-82
2022/01/13 08:53:16;;;;;;;101.77;21.07;;;1.80;99.90;;;;;;5045612;28;20943;-86
2022/01/13 08:55:46;;;;;;;104.15;27.23;;;1.70;99.90;;;;;;5042827;28;20432;-84
2022/01/13 08:58:27;;;;;;;129.23;23.57;;;1.70;99.90;;;;;;5055918;28;20198;-88
2022/01/13 09:00:56;;;;;;;146.10;26.30;;;1.80;99.90;;;;;;5036886;28;20817;-89
2022/01/13 09:03:24;;;;;;;119.60;23.77;;;1.70;99.90;;;;;;5037632;28;20467;-86
2022/01/13 09:05:54;;;;;;;138.23;22.70;;;1.70;99.90;;;;;;5048249;28;20447;-88
2022/01/13 09:08:21;;;;;;;100.30;23.83;;;1.80;99.90;;;;;;5057340;28;20436;-86
2022/01/13 09:10:50;;;;;;;126.80;27.93;;;1.80;99.90;;;;;;5056540;28;20439;-88
2022/01/13 09:13:20;;;;;;;85.90;26.13;;;1.90;99.90;;;;;;5054940;28;20435;-85
2022/01/13 09:15:56;;;;;;;88.47;26.63;;;1.80;99.90;;;;;;5057566;28;20428;-86
2022/01/13 09:18:46;;;;;;;112.07;27.40;;;1.70;99.90;;;;;;5055690;28;20431;-84
2022/01/13 09:21:14;;;;;;;109.00;25.87;;;1.80;99.90;;;;;;5055313;28;20475;-87
2022/01/13 09:23:47;;;;;;;106.43;27.67;;;1.80;99.90;;;;;;5055604;28;20436;-87
2022/01/13 09:26:15;;;;;;;93.13;24.50;;;1.90;99.90;;;;;;5038818;28;20432;-88
2022/01/13 09:28:43;;;;;;;95.35;24.95;;;2.00;99.90;;;;;;5058298;28;20444;-85
2022/01/13 09:31:13;;;;;;;95.40;24.03;;;2.10;99.90;;;;;;5058415;28;20202;-89
2022/01/13 09:33:47;;;;;;;70.33;24.63;;;2.20;99.90;;;;;;5058179;28;20443;-86
2022/01/13 09:36:14;;;;;;;79.37;24.17;;;2.00;99.90;;;;;;5056315;28;20464;-82
2022/01/13 09:38:42;;;;;;;79.63;24.03;;;2.10;99.90;;;;;;5057658;28;20475;-87
2022/01/13 09:41:10;;;;;;;93.73;26.23;;;2.00;99.90;;;;;;5059100;28;20495;-85
2022/01/13 09:43:37;;;;;;;126.97;24.93;;;2.30;99.90;;;;;;5057672;28;20432;-86
2022/01/13 09:46:04;;;;;;;109.07;24.83;;;2.50;99.90;;;;;;5056122;28;20451;-84
2022/01/13 09:48:32;;;;;;;102.63;24.23;;;2.40;99.90;;;;;;5053449;28;20458;-85
2022/01/13 09:51:03;;;;;;;97.10;25.10;;;2.60;99.90;;;;;;5055436;28;20947;-86
2022/01/13 09:53:31;;;;;;;83.03;23.83;;;2.60;99.90;;;;;;5051955;28;20462;-86
2022/01/13 09:55:58;;;;;;;105.13;25.83;;;2.70;99.90;;;;;;5035662;28;20455;-86
2022/01/13 09:58:28;;;;;;;73.07;23.90;;;2.80;99.90;;;;;;5054865;28;20428;-86
2022/01/13 10:00:55;;;;;;;96.00;24.20;;;2.80;99.90;;;;;;5055100;28;20483;-87
2022/01/13 10:03:26;;;;;;;83.43;23.43;;;2.80;99.90;;;;;;5055345;28;20462;-86
2022/01/13 10:05:58;;;;;;;80.10;26.60;;;2.80;99.90;;;;;;5054002;28;20468;-84
2022/01/13 10:08:43;;;;;;;90.57;23.10;;;2.80;99.90;;;;;;5054700;28;20203;-86
2022/01/13 10:11:27;;;;;;;139.23;25.13;;;3.00;99.90;;;;;;5016755;28;20510;-85
2022/01/13 10:14:12;;;;;;;102.63;22.93;;;3.10;99.90;;;;;;5034531;28;20737;-85
2022/01/13 10:16:52;;;;;;;88.87;22.60;;;3.20;99.90;;;;;;5036524;28;20460;-88
2022/01/13 10:19:33;;;;;;;88.37;23.07;;;3.20;99.90;;;;;;5034527;28;20523;-83
2022/01/13 10:22:04;;;;;;;80.87;24.13;;;3.10;99.90;;;;;;5034511;28;20492;-84
2022/01/13 10:24:34;;;;;;;90.77;24.50;;;3.10;99.90;;;;;;5034529;28;20869;-81
2022/01/13 10:27:06;;;;;;;96.47;24.00;;;3.10;99.90;;;;;;5033534;28;20931;-81
2022/01/13 10:29:41;;;;;;;106.07;24.50;;;3.30;99.90;;;;;;5034074;28;20432;-79
2022/01/13 10:32:08;;;;;;;103.73;23.17;;;3.20;99.90;;;;;;5034166;28;20444;-82
2022/01/13 10:34:38;;;;;;;81.57;24.67;;;3.30;99.90;;;;;;5033735;28;20792;-78
2022/01/13 10:37:11;;;;;;;94.47;23.27;;;3.30;99.90;;;;;;5044939;28;20451;-85
2022/01/13 10:39:56;;;;;;;103.40;22.67;;;3.10;99.90;;;;;;5053646;28;20470;-83
2022/01/13 10:45:34;;;;;;;104.07;26.07;;;2.90;99.90;;;;;;5053182;28;20419;-80
2022/01/13 10:48:05;;;;;;;70.87;24.07;;;3.10;99.90;;;;;;5053534;28;20868;-79
2022/01/13 10:50:37;;;;;;;74.07;23.67;;;3.40;99.90;;;;;;5053820;28;20537;-81
2022/01/13 10:53:06;;;;;;;97.00;25.07;;;3.60;99.90;;;;;;5053541;28;20455;-80
2022/01/13 10:55:38;;;;;;;114.43;25.03;;;3.70;99.90;;;;;;5053062;28;20936;-82
2022/01/13 10:58:06;;;;;;;115.23;26.30;;;3.70;99.90;;;;;;5052761;28;20440;-81
2022/01/13 11:00:35;;;;;;;69.33;25.13;;;3.60;99.90;;;;;;5052544;28;20902;-81
2022/01/13 11:03:05;;;;;;;84.33;26.63;;;3.80;99.90;;;;;;5052598;28;20938;-82
2022/01/13 11:05:34;;;;;;;74.10;26.53;;;3.80;99.90;;;;;;5052840;28;20440;-82
2022/01/13 11:08:04;;;;;;;107.60;27.27;;;3.90;99.90;;;;;;5052983;28;20432;-82
2022/01/13 11:10:33;;;;;;;81.40;25.47;;;3.70;99.90;;;;;;5052259;28;20456;-81
2022/01/13 11:13:07;;;;;;;86.53;24.80;;;3.80;99.90;;;;;;5053343;28;20455;-82
2022/01/13 11:15:38;;;;;;;96.30;25.23;;;3.90;99.90;;;;;;5053284;28;20443;-81
2022/01/13 11:18:08;;;;;;;92.63;24.80;;;4.00;99.90;;;;;;5053724;28;20923;-81
2022/01/13 11:20:42;;;;;;;75.50;23.40;;;4.10;99.90;;;;;;5055352;28;20229;-81
2022/01/13 11:23:13;;;;;;;74.57;24.27;;;4.20;99.90;;;;;;5055032;28;20199;-81
2022/01/13 11:25:42;;;;;;;105.33;26.57;;;4.20;99.90;;;;;;5055072;28;20197;-83
2022/01/13 11:28:12;;;;;;;68.70;25.30;;;4.40;99.90;;;;;;5055257;28;20212;-81
2022/01/13 11:30:42;;;;;;;77.80;21.80;;;4.50;99.90;;;;;;5055242;28;20651;-82
2022/01/13 11:33:12;;;;;;;77.13;21.73;;;4.40;99.90;;;;;;5053856;28;20202;-82
2022/01/13 11:35:45;;;;;;;68.40;23.83;;;4.30;99.90;;;;;;5054422;28;20194;-85
2022/01/13 11:38:16;;;;;;;73.17;25.70;;;4.30;99.90;;;;;;5053693;28;20202;-80
2022/01/13 11:40:45;;;;;;;70.10;24.43;;;4.40;99.90;;;;;;5053362;28;20245;-83
2022/01/13 11:43:32;;;;;;;109.60;25.97;;;4.40;99.90;;;;;;5053523;28;20214;-82
2022/01/13 11:46:18;;;;;;;74.07;25.83;;;4.30;99.90;;;;;;5054201;28;20191;-87
2022/01/13 11:48:59;;;;;;;62.37;24.97;;;4.10;99.90;;;;;;5053492;28;20252;-83
2022/01/13 11:51:40;;;;;;;80.33;25.40;;;4.10;99.90;;;;;;5054660;28;20273;-85
2022/01/13 11:54:08;;;;;;;76.00;24.73;;;4.20;99.90;;;;;;5039744;28;20690;-83
2022/01/13 11:56:37;;;;;;;68.43;27.20;;;4.30;99.90;;;;;;5057004;28;20187;-86
2022/01/13 11:59:10;;;;;;;64.00;26.00;;;4.40;99.90;;;;;;5049744;28;20684;-83
2022/01/13 12:01:38;;;;;;;73.87;25.17;;;4.30;99.90;;;;;;5056303;28;20670;-79
2022/01/13 12:04:07;;;;;;;63.43;26.50;;;4.50;99.90;;;;;;5056358;28;20193;-85
2022/01/13 12:06:40;;;;;;;85.13;25.77;;;4.50;99.90;;;;;;5056626;28;20202;-88
2022/01/13 12:09:09;;;;;;;68.33;25.40;;;4.50;99.90;;;;;;5056739;28;20275;-82
2022/01/13 12:11:46;;;;;;;80.80;26.10;;;4.50;99.90;;;;;;5056594;28;20197;-83
2022/01/13 12:14:41;;;;;;;71.07;24.43;;;4.50;99.90;;;;;;5057466;28;20194;-84
2022/01/13 12:17:22;;;;;;;63.50;26.27;;;4.70;99.90;;;;;;5057247;28;20646;-83
2022/01/13 12:19:52;;;;;;;65.90;25.27;;;4.80;99.90;;;;;;5057456;28;20596;-83
2022/01/13 12:22:42;;;;;;;72.17;22.80;;;4.90;99.90;;;;;;5056984;28;20226;-87
2022/01/13 12:25:12;;;;;;;98.50;23.73;;;4.90;99.90;;;;;;5056499;28;20256;-86
2022/01/13 12:27:49;;;;;;;74.50;21.67;;;4.60;99.90;;;;;;5057295;28;20198;-86
2022/01/13 12:30:19;;;;;;;53.90;20.63;;;4.70;99.90;;;;;;5057176;28;20190;-86
2022/01/13 12:32:56;;;;;;;55.53;22.30;;;4.60;99.90;;;;;;5057327;28;20202;-85
2022/01/13 12:35:41;;;;;;;49.03;21.70;;;4.60;99.90;;;;;;5057598;28;20664;-86
2022/01/13 12:38:11;;;;;;;64.10;23.73;;;4.70;99.90;;;;;;5057677;28;20270;-82
2022/01/13 12:40:43;;;;;;;68.97;23.57;;;4.90;99.90;;;;;;5057519;28;20199;-85
2022/01/13 12:43:22;;;;;;;55.80;21.70;;;5.00;99.90;;;;;;5056932;28;20217;-83
2022/01/13 12:45:50;;;;;;;63.80;24.60;;;5.10;99.90;;;;;;5055871;28;20248;-81
2022/01/13 12:48:17;;;;;;;59.27;21.03;;;5.20;99.90;;;;;;5039302;28;20695;-84
2022/01/13 12:50:47;;;;;;;62.53;23.40;;;4.90;99.90;;;;;;5058902;28;20673;-84
2022/01/13 12:53:18;;;;;;;72.03;21.80;;;4.70;99.90;;;;;;5057651;28;20538;-82
2022/01/13 12:55:54;;;;;;;80.00;24.00;;;4.80;99.90;;;;;;5057215;28;20271;-84
2022/01/13 12:58:22;;;;;;;63.90;23.87;;;5.00;99.90;;;;;;5055630;28;20321;-90